sensor_id;sensor_type;location;lat;lon;timestamp;pressure;altitude;pressure_sealevel;temperature
64600;BMP280;6553;48.412;9.514;2023-04-10T00:01:37;71693.28;;;20.13
64600;BMP280;6553;48.412;9.514;2023-04-10T00:04:03;71691.56;;;20.14
64600;BMP280;6553;48.412;9.514;2023-04-10T00:06:31;71695.50;;;20.12
64600;BMP280;6553;48.412;9.514;2023-04-10T00:08:58;71688.28;;;20.13
64600;BMP280;6553;48.412;9.514;2023-04-10T00:11:25;71694.88;;;20.14
64600;BMP280;6553;48.412;9.514;2023-04-10T00:13:51;71692.09;;;20.14
64600;BMP280;6553;48.412;9.514;2023-04-10T00:16:17;71692.75;;;20.12
64600;BMP280;6553;48.412;9.514;2023-04-10T00:18:43;71686.78;;;20.09
64600;BMP280;6553;48.412;9.514;2023-04-10T00:21:08;71687.31;;;20.10
64600;BMP280;6553;48.412;9.514;2023-04-10T00:23:34;71686.25;;;20.09
64600;BMP280;6553;48.412;9.514;2023-04-10T00:26:00;71693.28;;;20.13
64600;BMP280;6553;48.412;9.514;2023-04-10T00:28:26;71686.78;;;20.09
64600;BMP280;6553;48.412;9.514;2023-04-10T00:30:52;71686.25;;;20.09
64600;BMP280;6553;48.412;9.514;2023-04-10T00:33:18;71691.69;;;20.11
64600;BMP280;6553;48.412;9.514;2023-04-10T00:35:44;71685.59;;;20.11
64600;BMP280;6553;48.412;9.514;2023-04-10T00:38:10;71684.03;;;20.09
64600;BMP280;6553;48.412;9.514;2023-04-10T00:40:36;71690.06;;;20.10
64600;BMP280;6553;48.412;9.514;2023-04-10T00:43:02;71685.72;;;20.08
64600;BMP280;6553;48.412;9.514;2023-04-10T00:45:28;71689.56;;;20.09
64600;BMP280;6553;48.412;9.514;2023-04-10T00:47:54;71693.38;;;20.10
64600;BMP280;6553;48.412;9.514;2023-04-10T00:50:21;71691.16;;;20.11
64600;BMP280;6553;48.412;9.514;2023-04-10T00:52:48;71687.84;;;20.10
64600;BMP280;6553;48.412;9.514;2023-04-10T00:55:15;71687.97;;;20.08
64600;BMP280;6553;48.412;9.514;2023-04-10T00:57:45;71684.53;;;20.10
64600;BMP280;6553;48.412;9.514;2023-04-10T01:00:16;71688.91;;;20.11
64600;BMP280;6553;48.412;9.514;2023-04-10T01:02:41;71687.97;;;20.08
64600;BMP280;6553;48.412;9.514;2023-04-10T01:05:09;71692.31;;;20.09
64600;BMP280;6553;48.412;9.514;2023-04-10T01:08:07;71687.84;;;20.10
64600;BMP280;6553;48.412;9.514;2023-04-10T01:10:53;71687.44;;;20.07
64600;BMP280;6553;48.412;9.514;2023-04-10T01:13:35;71689.03;;;20.09
64600;BMP280;6553;48.412;9.514;2023-04-10T01:21:36;71688.91;;;20.11
64600;BMP280;6553;48.412;9.514;2023-04-10T01:27:51;71688.91;;;20.11
64600;BMP280;6553;48.412;9.514;2023-04-10T01:30:23;71688.38;;;20.11
64600;BMP280;6553;48.412;9.514;2023-04-10T01:32:54;71688.91;;;20.11
64600;BMP280;6553;48.412;9.514;2023-04-10T01:35:23;71693.81;;;20.13
64600;BMP280;6553;48.412;9.514;2023-04-10T01:37:52;71682.94;;;20.08
64600;BMP280;6553;48.412;9.514;2023-04-10T01:40:19;71694.97;;;20.12
64600;BMP280;6553;48.412;9.514;2023-04-10T01:42:51;71686.78;;;20.09
64600;BMP280;6553;48.412;9.514;2023-04-10T01:45:25;71691.78;;;20.09
64600;BMP280;6553;48.412;9.514;2023-04-10T01:47:53;71689.56;;;20.09
64600;BMP280;6553;48.412;9.514;2023-04-10T01:50:21;71691.25;;;20.08
64600;BMP280;6553;48.412;9.514;2023-04-10T01:52:53;71685.19;;;20.08
64600;BMP280;6553;48.412;9.514;2023-04-10T01:55:26;71689.56;;;20.09
64600;BMP280;6553;48.412;9.514;2023-04-10T01:57:58;71689.56;;;20.09
64600;BMP280;6553;48.412;9.514;2023-04-10T02:00:24;71682.94;;;20.08
64600;BMP280;6553;48.412;9.514;2023-04-10T02:02:50;71690.63;;;20.10
64600;BMP280;6553;48.412;9.514;2023-04-10T02:05:16;71688.38;;;20.11
64600;BMP280;6553;48.412;9.514;2023-04-10T02:08:01;71687.84;;;20.10
64600;BMP280;6553;48.412;9.514;2023-04-10T02:10:40;71684.66;;;20.07
64600;BMP280;6553;48.412;9.514;2023-04-10T02:13:13;71684.13;;;20.07
64600;BMP280;6553;48.412;9.514;2023-04-10T02:15:45;71684.03;;;20.09
64600;BMP280;6553;48.412;9.514;2023-04-10T02:18:16;71685.06;;;20.10
64600;BMP280;6553;48.412;9.514;2023-04-10T02:20:43;71692.31;;;20.09
64600;BMP280;6553;48.412;9.514;2023-04-10T02:23:14;71690.63;;;20.10
64600;BMP280;6553;48.412;9.514;2023-04-10T02:25:41;71687.84;;;20.10
64600;BMP280;6553;48.412;9.514;2023-04-10T02:28:07;71687.31;;;20.10
64600;BMP280;6553;48.412;9.514;2023-04-10T02:30:33;71687.84;;;20.10
64600;BMP280;6553;48.412;9.514;2023-04-10T02:33:00;71687.44;;;20.07
64600;BMP280;6553;48.412;9.514;2023-04-10T02:35:28;71684.13;;;20.07
64600;BMP280;6553;48.412;9.514;2023-04-10T02:37:55;71686.38;;;20.06
64600;BMP280;6553;48.412;9.514;2023-04-10T02:40:22;71688.50;;;20.08
64600;BMP280;6553;48.412;9.514;2023-04-10T02:43:06;71688.38;;;20.11
64600;BMP280;6553;48.412;9.514;2023-04-10T02:45:32;71682.94;;;20.08
64600;BMP280;6553;48.412;9.514;2023-04-10T02:47:58;71686.25;;;20.09
64600;BMP280;6553;48.412;9.514;2023-04-10T02:50:24;71685.72;;;20.08
64600;BMP280;6553;48.412;9.514;2023-04-10T02:52:55;71680.81;;;20.06
64600;BMP280;6553;48.412;9.514;2023-04-10T02:55:21;71686.78;;;20.09
64600;BMP280;6553;48.412;9.514;2023-04-10T02:57:46;71683.59;;;20.06
64600;BMP280;6553;48.412;9.514;2023-04-10T03:00:13;71686.91;;;20.07
64600;BMP280;6553;48.412;9.514;2023-04-10T03:02:57;71685.81;;;20.06
64600;BMP280;6553;48.412;9.514;2023-04-10T03:05:27;71684.78;;;20.05
64600;BMP280;6553;48.412;9.514;2023-04-10T03:07:53;71681.91;;;20.07
64600;BMP280;6553;48.412;9.514;2023-04-10T03:10:19;71680.94;;;20.04
64600;BMP280;6553;48.412;9.514;2023-04-10T03:12:46;71684.13;;;20.07
64600;BMP280;6553;48.412;9.514;2023-04-10T03:15:13;71687.44;;;20.07
64600;BMP280;6553;48.412;9.514;2023-04-10T03:17:38;71685.28;;;20.05
64600;BMP280;6553;48.412;9.514;2023-04-10T03:20:06;71679.22;;;20.05
64600;BMP280;6553;48.412;9.514;2023-04-10T03:22:33;71689.66;;;20.07
64600;BMP280;6553;48.412;9.514;2023-04-10T03:24:59;71689.03;;;20.09
64600;BMP280;6553;48.412;9.514;2023-04-10T03:27:25;71684.03;;;20.09
64600;BMP280;6553;48.412;9.514;2023-04-10T03:29:51;71689.56;;;20.09
64600;BMP280;6553;48.412;9.514;2023-04-10T03:32:17;71688.50;;;20.08
64600;BMP280;6553;48.412;9.514;2023-04-10T03:34:43;71682.53;;;20.05
64600;BMP280;6553;48.412;9.514;2023-04-10T03:37:09;71690.06;;;20.10
64600;BMP280;6553;48.412;9.514;2023-04-10T03:39:35;71683.06;;;20.06
64600;BMP280;6553;48.412;9.514;2023-04-10T03:42:01;71682.94;;;20.08
64600;BMP280;6553;48.412;9.514;2023-04-10T03:44:28;71683.19;;;20.03
64600;BMP280;6553;48.412;9.514;2023-04-10T03:46:54;71685.81;;;20.06
64600;BMP280;6553;48.412;9.514;2023-04-10T03:49:20;71688.06;;;20.05
64600;BMP280;6553;48.412;9.514;2023-04-10T03:51:46;71690.63;;;20.10
64600;BMP280;6553;48.412;9.514;2023-04-10T03:54:11;71683.59;;;20.06
64600;BMP280;6553;48.412;9.514;2023-04-10T03:56:37;71683.47;;;20.09
64600;BMP280;6553;48.412;9.514;2023-04-10T03:59:03;71686.38;;;20.06
64600;BMP280;6553;48.412;9.514;2023-04-10T04:01:36;71684.25;;;20.04
64600;BMP280;6553;48.412;9.514;2023-04-10T04:04:08;71685.81;;;20.06
64600;BMP280;6553;48.412;9.514;2023-04-10T04:06:52;71681.91;;;20.07
64600;BMP280;6553;48.412;9.514;2023-04-10T04:09:24;71686.78;;;20.09
64600;BMP280;6553;48.412;9.514;2023-04-10T04:12:00;71685.28;;;20.05
64600;BMP280;6553;48.412;9.514;2023-04-10T04:14:47;71680.94;;;20.04
64600;BMP280;6553;48.412;9.514;2023-04-10T04:17:31;71682.53;;;20.05
64600;BMP280;6553;48.412;9.514;2023-04-10T04:20:07;71682.00;;;20.05
64600;BMP280;6553;48.412;9.514;2023-04-10T04:22:42;71680.28;;;20.06
64600;BMP280;6553;48.412;9.514;2023-04-10T04:25:15;71683.19;;;20.03
64600;BMP280;6553;48.412;9.514;2023-04-10T04:28:09;71686.50;;;20.04
64600;BMP280;6553;48.412;9.514;2023-04-10T04:30:57;71674.56;;;19.98
64600;BMP280;6553;48.412;9.514;2023-04-10T04:33:46;71672.31;;;19.98
64600;BMP280;6553;48.412;9.514;2023-04-10T04:36:27;71682.66;;;20.03
64600;BMP280;6553;48.412;9.514;2023-04-10T04:39:16;71678.28;;;20.01
64600;BMP280;6553;48.412;9.514;2023-04-10T04:42:04;71682.66;;;20.03
64600;BMP280;6553;48.412;9.514;2023-04-10T04:44:50;71679.34;;;20.02
64600;BMP280;6553;48.412;9.514;2023-04-10T04:47:41;71685.41;;;20.03
64600;BMP280;6553;48.412;9.514;2023-04-10T04:50:40;71682.09;;;20.02
64600;BMP280;6553;48.412;9.514;2023-04-10T04:53:25;71680.00;;;20.00
64600;BMP280;6553;48.412;9.514;2023-04-10T04:56:02;71679.22;;;20.05
64600;BMP280;6553;48.412;9.514;2023-04-10T04:58:57;71675.50;;;20.01
64600;BMP280;6553;48.412;9.514;2023-04-10T05:01:33;71678.81;;;20.02
64600;BMP280;6553;48.412;9.514;2023-04-10T05:04:15;71681.69;;;19.99
64600;BMP280;6553;48.412;9.514;2023-04-10T05:06:50;71671.78;;;19.98
64600;BMP280;6553;48.412;9.514;2023-04-10T05:09:35;71680.41;;;20.03
64600;BMP280;6553;48.412;9.514;2023-04-10T05:12:19;71684.25;;;20.04
64600;BMP280;6553;48.412;9.514;2023-04-10T05:15:04;71679.88;;;20.03
64600;BMP280;6553;48.412;9.514;2023-04-10T05:17:44;71681.56;;;20.02
64600;BMP280;6553;48.412;9.514;2023-04-10T05:20:38;71682.09;;;20.02
64600;BMP280;6553;48.412;9.514;2023-04-10T05:23:19;71681.56;;;20.02
64600;BMP280;6553;48.412;9.514;2023-04-10T05:25:55;71683.19;;;20.03
64600;BMP280;6553;48.412;9.514;2023-04-10T05:28:45;71680.41;;;20.03
64600;BMP280;6553;48.412;9.514;2023-04-10T05:31:24;71677.78;;;20.01
64600;BMP280;6553;48.412;9.514;2023-04-10T05:33:55;71687.13;;;20.02
64600;BMP280;6553;48.412;9.514;2023-04-10T05:36:31;71678.72;;;20.04
64600;BMP280;6553;48.412;9.514;2023-04-10T05:39:20;71678.28;;;20.01
64600;BMP280;6553;48.412;9.514;2023-04-10T05:42:00;71677.09;;;20.03
64600;BMP280;6553;48.412;9.514;2023-04-10T05:44:30;71685.28;;;20.05
64600;BMP280;6553;48.412;9.514;2023-04-10T05:47:20;71678.28;;;20.01
64600;BMP280;6553;48.412;9.514;2023-04-10T05:49:56;71683.19;;;20.03
64600;BMP280;6553;48.412;9.514;2023-04-10T05:52:34;71683.19;;;20.03
64600;BMP280;6553;48.412;9.514;2023-04-10T05:55:20;71686.25;;;20.09
64600;BMP280;6553;48.412;9.514;2023-04-10T05:58:02;71690.81;;;20.05
64600;BMP280;6553;48.412;9.514;2023-04-10T06:00:46;71687.31;;;20.10
64600;BMP280;6553;48.412;9.514;2023-04-10T06:03:43;71689.03;;;20.09
64600;BMP280;6553;48.412;9.514;2023-04-10T06:06:10;71682.44;;;20.08
64600;BMP280;6553;48.412;9.514;2023-04-10T06:08:36;71682.94;;;20.08
64600;BMP280;6553;48.412;9.514;2023-04-10T06:11:01;71691.16;;;20.11
64600;BMP280;6553;48.412;9.514;2023-04-10T06:13:29;71685.19;;;20.08
64600;BMP280;6553;48.412;9.514;2023-04-10T06:15:58;71691.69;;;20.11
64600;BMP280;6553;48.412;9.514;2023-04-10T06:18:24;71692.75;;;20.12
64600;BMP280;6553;48.412;9.514;2023-04-10T06:20:49;71687.84;;;20.10
64600;BMP280;6553;48.412;9.514;2023-04-10T06:23:15;71686.66;;;20.12
64600;BMP280;6553;48.412;9.514;2023-04-10T06:25:42;71695.41;;;20.15
64600;BMP280;6553;48.412;9.514;2023-04-10T06:28:08;71692.63;;;20.15
64600;BMP280;6553;48.412;9.514;2023-04-10T06:30:34;71694.22;;;20.16
64600;BMP280;6553;48.412;9.514;2023-04-10T06:33:03;71691.03;;;20.13
64600;BMP280;6553;48.412;9.514;2023-04-10T06:35:31;71696.44;;;20.16
64600;BMP280;6553;48.412;9.514;2023-04-10T06:37:57;71695.28;;;20.17
64600;BMP280;6553;48.412;9.514;2023-04-10T06:40:23;71700.69;;;20.20
64600;BMP280;6553;48.412;9.514;2023-04-10T06:42:49;71693.69;;;20.16
64600;BMP280;6553;48.412;9.514;2023-04-10T06:45:27;71697.94;;;20.20
64600;BMP280;6553;48.412;9.514;2023-04-10T06:47:53;71695.28;;;20.17
64600;BMP280;6553;48.412;9.514;2023-04-10T06:50:19;71699.00;;;20.21
64600;BMP280;6553;48.412;9.514;2023-04-10T06:52:46;71699.94;;;20.24
64600;BMP280;6553;48.412;9.514;2023-04-10T06:55:12;71704.41;;;20.23
64600;BMP280;6553;48.412;9.514;2023-04-10T06:57:38;71706.03;;;20.25
64600;BMP280;6553;48.412;9.514;2023-04-10T07:00:06;71707.06;;;20.26
64600;BMP280;6553;48.412;9.514;2023-04-10T07:02:32;71702.72;;;20.24
64600;BMP280;6553;48.412;9.514;2023-04-10T07:04:58;71703.25;;;20.25
64600;BMP280;6553;48.412;9.514;2023-04-10T07:07:23;71708.13;;;20.27
64600;BMP280;6553;48.412;9.514;2023-04-10T07:09:49;71704.81;;;20.26
64600;BMP280;6553;48.412;9.514;2023-04-10T07:12:15;71708.03;;;20.29
64600;BMP280;6553;48.412;9.514;2023-04-10T07:14:41;71711.34;;;20.30
64600;BMP280;6553;48.412;9.514;2023-04-10T07:17:07;71713.84;;;20.35
64600;BMP280;6553;48.412;9.514;2023-04-10T07:19:33;71711.63;;;20.35
64600;BMP280;6553;48.412;9.514;2023-04-10T07:21:59;71718.88;;;20.34
64600;BMP280;6553;48.412;9.514;2023-04-10T07:24:26;71720.88;;;20.39
64600;BMP280;6553;48.412;9.514;2023-04-10T07:26:52;71712.28;;;20.33
64600;BMP280;6553;48.412;9.514;2023-04-10T07:29:19;71723.00;;;20.41
64600;BMP280;6553;48.412;9.514;2023-04-10T07:31:44;71723.94;;;20.44
64600;BMP280;6553;48.412;9.514;2023-04-10T07:34:11;71728.97;;;20.44
64600;BMP280;6553;48.412;9.514;2023-04-10T07:36:37;71730.44;;;20.48
64600;BMP280;6553;48.412;9.514;2023-04-10T07:39:03;71730.44;;;20.48
64600;BMP280;6553;48.412;9.514;2023-04-10T07:41:28;71734.41;;;20.46
64600;BMP280;6553;48.412;9.514;2023-04-10T07:43:54;71736.28;;;20.53
64600;BMP280;6553;48.412;9.514;2023-04-10T07:46:20;71740.53;;;20.58
64600;BMP280;6553;48.412;9.514;2023-04-10T07:48:46;71744.38;;;20.59
64600;BMP280;6553;48.412;9.514;2023-04-10T07:51:13;71748.22;;;20.60
64600;BMP280;6553;48.412;9.514;2023-04-10T07:53:38;71742.66;;;20.60
64600;BMP280;6553;48.412;9.514;2023-04-10T07:56:05;71750.72;;;20.65
64600;BMP280;6553;48.412;9.514;2023-04-10T07:58:31;71744.16;;;20.64
64600;BMP280;6553;48.412;9.514;2023-04-10T08:00:57;71751.16;;;20.68
64600;BMP280;6553;48.412;9.514;2023-04-10T08:03:25;71747.84;;;20.67
64600;BMP280;6553;48.412;9.514;2023-04-10T08:05:51;71744.66;;;20.64
64600;BMP280;6553;48.412;9.514;2023-04-10T08:08:16;71743.50;;;20.66
64600;BMP280;6553;48.412;9.514;2023-04-10T08:10:42;71748.38;;;20.68
64600;BMP280;6553;48.412;9.514;2023-04-10T08:13:08;71749.34;;;20.71
64600;BMP280;6553;48.412;9.514;2023-04-10T08:15:33;71754.34;;;20.71
64600;BMP280;6553;48.412;9.514;2023-04-10T08:17:59;71750.50;;;20.70
64600;BMP280;6553;48.412;9.514;2023-04-10T08:20:27;71758.06;;;20.74
64600;BMP280;6553;48.412;9.514;2023-04-10T08:22:53;71758.06;;;20.74
64600;BMP280;6553;48.412;9.514;2023-04-10T08:25:19;71758.59;;;20.75
64600;BMP280;6553;48.412;9.514;2023-04-10T08:27:44;71755.28;;;20.74
64600;BMP280;6553;48.412;9.514;2023-04-10T08:30:10;71755.28;;;20.74
64600;BMP280;6553;48.412;9.514;2023-04-10T08:32:37;71756.75;;;20.78
64600;BMP280;6553;48.412;9.514;2023-04-10T08:35:04;71759.00;;;20.78
64600;BMP280;6553;48.412;9.514;2023-04-10T08:37:30;71757.94;;;20.77
64600;BMP280;6553;48.412;9.514;2023-04-10T08:39:56;71762.84;;;20.79
64600;BMP280;6553;48.412;9.514;2023-04-10T08:42:23;71754.63;;;20.76
64600;BMP280;6553;48.412;9.514;2023-04-10T08:44:49;71761.91;;;20.75
64600;BMP280;6553;48.412;9.514;2023-04-10T08:47:19;71762.84;;;20.79
64600;BMP280;6553;48.412;9.514;2023-04-10T08:50:00;71756.34;;;20.75
64600;BMP280;6553;48.412;9.514;2023-04-10T08:52:33;71756.34;;;20.75
64600;BMP280;6553;48.412;9.514;2023-04-10T08:55:04;71761.25;;;20.77
64600;BMP280;6553;48.412;9.514;2023-04-10T08:57:33;71758.59;;;20.75
64600;BMP280;6553;48.412;9.514;2023-04-10T08:59:59;71758.06;;;20.74
64600;BMP280;6553;48.412;9.514;2023-04-10T09:02:25;71761.38;;;20.75
64600;BMP280;6553;48.412;9.514;2023-04-10T09:04:52;71755.28;;;20.74
64600;BMP280;6553;48.412;9.514;2023-04-10T09:07:20;71740.84;;;20.63
64600;BMP280;6553;48.412;9.514;2023-04-10T09:09:47;71752.50;;;20.74
64600;BMP280;6553;48.412;9.514;2023-04-10T09:12:13;71754.34;;;20.71
64600;BMP280;6553;48.412;9.514;2023-04-10T09:14:40;71751.47;;;20.73
64600;BMP280;6553;48.412;9.514;2023-04-10T09:17:24;71757.00;;;20.73
64600;BMP280;6553;48.412;9.514;2023-04-10T09:19:55;71757.53;;;20.74
64600;BMP280;6553;48.412;9.514;2023-04-10T09:22:32;71757.94;;;20.77
64600;BMP280;6553;48.412;9.514;2023-04-10T09:25:01;71756.34;;;20.75
64600;BMP280;6553;48.412;9.514;2023-04-10T09:27:30;71759.66;;;20.76
64600;BMP280;6553;48.412;9.514;2023-04-10T09:29:57;71755.16;;;20.77
64600;BMP280;6553;48.412;9.514;2023-04-10T09:32:44;71754.13;;;20.76
64600;BMP280;6553;48.412;9.514;2023-04-10T09:35:13;71761.25;;;20.77
64600;BMP280;6553;48.412;9.514;2023-04-10T09:37:41;71759.66;;;20.76
64600;BMP280;6553;48.412;9.514;2023-04-10T09:40:23;71754.75;;;20.74
64600;BMP280;6553;48.412;9.514;2023-04-10T09:42:49;71758.59;;;20.75
64600;BMP280;6553;48.412;9.514;2023-04-10T09:45:15;71755.41;;;20.72
64600;BMP280;6553;48.412;9.514;2023-04-10T09:50:37;71754.13;;;20.76
64600;BMP280;6553;48.412;9.514;2023-04-10T09:53:10;71762.97;;;20.76
64600;BMP280;6553;48.412;9.514;2023-04-10T09:55:37;71758.06;;;20.74
64600;BMP280;6553;48.412;9.514;2023-04-10T09:58:06;71759.66;;;20.76
64600;BMP280;6553;48.412;9.514;2023-04-10T10:00:42;71757.00;;;20.73
64600;BMP280;6553;48.412;9.514;2023-04-10T10:03:18;71755.28;;;20.74
64600;BMP280;6553;48.412;9.514;2023-04-10T10:05:49;71763.59;;;20.74
64600;BMP280;6553;48.412;9.514;2023-04-10T10:08:15;71756.88;;;20.76
64600;BMP280;6553;48.412;9.514;2023-04-10T10:10:53;71759.13;;;20.75
64600;BMP280;6553;48.412;9.514;2023-04-10T10:13:49;71752.50;;;20.74
64600;BMP280;6553;48.412;9.514;2023-04-10T10:16:31;71758.59;;;20.75
64600;BMP280;6553;48.412;9.514;2023-04-10T10:19:05;71752.00;;;20.74
64600;BMP280;6553;48.412;9.514;2023-04-10T10:21:33;71759.66;;;20.76
64600;BMP280;6553;48.412;9.514;2023-04-10T10:24:01;71754.75;;;20.74
64600;BMP280;6553;48.412;9.514;2023-04-10T10:26:32;71752.50;;;20.74
64600;BMP280;6553;48.412;9.514;2023-04-10T10:29:04;71757.53;;;20.74
64600;BMP280;6553;48.412;9.514;2023-04-10T10:31:32;71759.66;;;20.76
64600;BMP280;6553;48.412;9.514;2023-04-10T10:34:00;71747.75;;;20.70
64600;BMP280;6553;48.412;9.514;2023-04-10T10:36:39;71759.66;;;20.76
64600;BMP280;6553;48.412;9.514;2023-04-10T10:39:29;71758.06;;;20.74
64600;BMP280;6553;48.412;9.514;2023-04-10T10:45:11;71758.47;;;20.77
64600;BMP280;6553;48.412;9.514;2023-04-10T10:47:43;71759.66;;;20.76
64600;BMP280;6553;48.412;9.514;2023-04-10T10:50:10;71761.78;;;20.78
64600;BMP280;6553;48.412;9.514;2023-04-10T10:52:52;71757.41;;;20.76
64600;BMP280;6553;48.412;9.514;2023-04-10T10:55:28;71757.41;;;20.76
64600;BMP280;6553;48.412;9.514;2023-04-10T10:58:08;71761.78;;;20.78
64600;BMP280;6553;48.412;9.514;2023-04-10T11:05:58;71761.16;;;20.80
64600;BMP280;6553;48.412;9.514;2023-04-10T11:11:03;71767.09;;;20.83
64600;BMP280;6553;48.412;9.514;2023-04-10T11:13:37;71764.31;;;20.83
64600;BMP280;6553;48.412;9.514;2023-04-10T11:16:06;71769.88;;;20.83
64600;BMP280;6553;48.412;9.514;2023-04-10T11:21:16;71762.19;;;20.81
64600;BMP280;6553;48.412;9.514;2023-04-10T11:29:01;71762.19;;;20.81
64600;BMP280;6553;48.412;9.514;2023-04-10T11:31:27;71763.78;;;20.82
64600;BMP280;6553;48.412;9.514;2023-04-10T11:36:23;71767.75;;;20.81
64600;BMP280;6553;48.412;9.514;2023-04-10T11:39:07;71762.72;;;20.81
64600;BMP280;6553;48.412;9.514;2023-04-10T11:41:36;71760.59;;;20.79
64600;BMP280;6553;48.412;9.514;2023-04-10T11:44:06;71760.59;;;20.79
64600;BMP280;6553;48.412;9.514;2023-04-10T11:46:37;71764.44;;;20.80
64600;BMP280;6553;48.412;9.514;2023-04-10T11:49:05;71765.50;;;20.81
64600;BMP280;6553;48.412;9.514;2023-04-10T11:51:32;71766.03;;;20.82
64600;BMP280;6553;48.412;9.514;2023-04-10T11:54:10;71768.25;;;20.81
64600;BMP280;6553;48.412;9.514;2023-04-10T11:56:39;71763.91;;;20.80
64600;BMP280;6553;48.412;9.514;2023-04-10T11:59:06;71764.44;;;20.80
64600;BMP280;6553;48.412;9.514;2023-04-10T12:01:34;71766.03;;;20.82
64600;BMP280;6553;48.412;9.514;2023-04-10T12:04:00;71763.25;;;20.82
64600;BMP280;6553;48.412;9.514;2023-04-10T12:06:26;71760.59;;;20.79
64600;BMP280;6553;48.412;9.514;2023-04-10T12:08:52;71766.03;;;20.82
64600;BMP280;6553;48.412;9.514;2023-04-10T12:11:24;71765.50;;;20.81
64600;BMP280;6553;48.412;9.514;2023-04-10T12:13:55;71766.03;;;20.82
64600;BMP280;6553;48.412;9.514;2023-04-10T12:16:23;71761.16;;;20.80
64600;BMP280;6553;48.412;9.514;2023-04-10T12:18:49;71763.91;;;20.80
64600;BMP280;6553;48.412;9.514;2023-04-10T12:21:15;71762.19;;;20.81
64600;BMP280;6553;48.412;9.514;2023-04-10T12:23:41;71760.06;;;20.79
64600;BMP280;6553;48.412;9.514;2023-04-10T12:26:16;71764.44;;;20.80
64600;BMP280;6553;48.412;9.514;2023-04-10T12:28:51;71764.97;;;20.81
64600;BMP280;6553;48.412;9.514;2023-04-10T12:31:25;71763.38;;;20.79
64600;BMP280;6553;48.412;9.514;2023-04-10T12:33:52;71761.56;;;20.83
64600;BMP280;6553;48.412;9.514;2023-04-10T12:36:23;71760.06;;;20.79
64600;BMP280;6553;48.412;9.514;2023-04-10T12:38:51;71761.56;;;20.83
64600;BMP280;6553;48.412;9.514;2023-04-10T12:41:23;71767.09;;;20.83
64600;BMP280;6553;48.412;9.514;2023-04-10T12:43:52;71766.03;;;20.82
64600;BMP280;6553;48.412;9.514;2023-04-10T12:46:28;71764.97;;;20.81
64600;BMP280;6553;48.412;9.514;2023-04-10T12:48:54;71761.66;;;20.80
64600;BMP280;6553;48.412;9.514;2023-04-10T12:51:48;71767.09;;;20.83
64600;BMP280;6553;48.412;9.514;2023-04-10T12:54:46;71765.50;;;20.81
64600;BMP280;6553;48.412;9.514;2023-04-10T12:57:25;71765.41;;;20.84
64600;BMP280;6553;48.412;9.514;2023-04-10T12:59:54;71766.56;;;20.82
64600;BMP280;6553;48.412;9.514;2023-04-10T13:02:20;71760.47;;;20.82
64600;BMP280;6553;48.412;9.514;2023-04-10T13:04:46;71766.97;;;20.85
64600;BMP280;6553;48.412;9.514;2023-04-10T13:07:12;71766.03;;;20.82
64600;BMP280;6553;48.412;9.514;2023-04-10T13:09:38;71763.25;;;20.82
64600;BMP280;6553;48.412;9.514;2023-04-10T13:12:03;71765.91;;;20.84
64600;BMP280;6553;48.412;9.514;2023-04-10T13:14:31;71764.84;;;20.83
64600;BMP280;6553;48.412;9.514;2023-04-10T13:16:57;71770.94;;;20.84
64600;BMP280;6553;48.412;9.514;2023-04-10T13:19:23;71765.91;;;20.84
64600;BMP280;6553;48.412;9.514;2023-04-10T13:21:49;71764.72;;;20.86
64600;BMP280;6553;48.412;9.514;2023-04-10T13:24:16;71767.50;;;20.86
64600;BMP280;6553;48.412;9.514;2023-04-10T13:26:41;71772.50;;;20.85
64600;BMP280;6553;48.412;9.514;2023-04-10T13:29:07;71767.50;;;20.86
64600;BMP280;6553;48.412;9.514;2023-04-10T13:31:33;71770.69;;;20.89
64600;BMP280;6553;48.412;9.514;2023-04-10T13:33:58;71772.28;;;20.90
64600;BMP280;6553;48.412;9.514;2023-04-10T13:36:24;71769.19;;;20.85
64600;BMP280;6553;48.412;9.514;2023-04-10T13:38:51;71772.41;;;20.88
64600;BMP280;6553;48.412;9.514;2023-04-10T13:41:16;71766.44;;;20.85
64600;BMP280;6553;48.412;9.514;2023-04-10T13:43:42;71772.28;;;20.90
64600;BMP280;6553;48.412;9.514;2023-04-10T13:46:08;71770.16;;;20.88
64600;BMP280;6553;48.412;9.514;2023-04-10T13:48:33;71770.16;;;20.88
64600;BMP280;6553;48.412;9.514;2023-04-10T13:51:06;71768.69;;;20.84
64600;BMP280;6553;48.412;9.514;2023-04-10T13:53:32;71772.41;;;20.88
64600;BMP280;6553;48.412;9.514;2023-04-10T13:55:58;71776.13;;;20.91
64600;BMP280;6553;48.412;9.514;2023-04-10T13:58:24;71777.72;;;20.93
64600;BMP280;6553;48.412;9.514;2023-04-10T14:00:51;71774.53;;;20.90
64600;BMP280;6553;48.412;9.514;2023-04-10T14:03:16;71774.94;;;20.93
64600;BMP280;6553;48.412;9.514;2023-04-10T14:05:42;71773.88;;;20.92
64600;BMP280;6553;48.412;9.514;2023-04-10T14:08:09;71776.22;;;20.89
64600;BMP280;6553;48.412;9.514;2023-04-10T14:10:36;71778.38;;;20.91
64600;BMP280;6553;48.412;9.514;2023-04-10T14:13:05;71776.13;;;20.91
64600;BMP280;6553;48.412;9.514;2023-04-10T14:15:32;71775.59;;;20.91
64600;BMP280;6553;48.412;9.514;2023-04-10T14:17:58;71778.25;;;20.93
64600;BMP280;6553;48.412;9.514;2023-04-10T14:20:24;71773.22;;;20.94
64600;BMP280;6553;48.412;9.514;2023-04-10T14:22:50;71774.94;;;20.93
64600;BMP280;6553;48.412;9.514;2023-04-10T14:25:15;71768.97;;;20.90
64600;BMP280;6553;48.412;9.514;2023-04-10T14:27:42;71778.25;;;20.93
64600;BMP280;6553;48.412;9.514;2023-04-10T14:30:09;71775.06;;;20.90
64600;BMP280;6553;48.412;9.514;2023-04-10T14:32:35;71771.09;;;20.92
64600;BMP280;6553;48.412;9.514;2023-04-10T14:35:01;71772.81;;;20.91
64600;BMP280;6553;48.412;9.514;2023-04-10T14:37:26;71771.09;;;20.92
64600;BMP280;6553;48.412;9.514;2023-04-10T14:39:52;71773.88;;;20.92
64600;BMP280;6553;48.412;9.514;2023-04-10T14:42:18;71777.72;;;20.93
64600;BMP280;6553;48.412;9.514;2023-04-10T14:44:43;71778.78;;;20.94
64600;BMP280;6553;48.412;9.514;2023-04-10T14:47:09;71778.25;;;20.93
64600;BMP280;6553;48.412;9.514;2023-04-10T14:49:35;71774.31;;;20.95
64600;BMP280;6553;48.412;9.514;2023-04-10T14:52:01;71775.59;;;20.91
64600;BMP280;6553;48.412;9.514;2023-04-10T14:54:27;71774.94;;;20.93
64600;BMP280;6553;48.412;9.514;2023-04-10T14:56:52;71776.13;;;20.91
64600;BMP280;6553;48.412;9.514;2023-04-10T14:59:18;71777.19;;;20.92
64600;BMP280;6553;48.412;9.514;2023-04-10T15:01:44;71772.81;;;20.91
64600;BMP280;6553;48.412;9.514;2023-04-10T15:04:10;71776.66;;;20.92
64600;BMP280;6553;48.412;9.514;2023-04-10T15:06:36;71773.88;;;20.92
64600;BMP280;6553;48.412;9.514;2023-04-10T15:09:02;71777.31;;;20.90
64600;BMP280;6553;48.412;9.514;2023-04-10T15:11:28;71775.59;;;20.91
64600;BMP280;6553;48.412;9.514;2023-04-10T15:13:53;71779.97;;;20.92